Time;durP1;ratioP1;P1;durP2;ratioP2;P2;SDS_P1;SDS_P2;PMS_P1;PMS_P2;Temp;Humidity;BMP_temperature;BMP_pressure;BME280_temperature;BME280_humidity;BME280_pressure;Samples;Min_cycle;Max_cycle;Signal;HPM_P1;HPM_P2
2024/01/11 00:01:12;;;;;;;24.83;14.32;;;-3.70;99.90;;;;;;5043725;28;20037;-66
2024/01/11 00:03:38;;;;;;;26.25;13.35;;;-3.80;99.90;;;;;;5039731;28;20382;-66
2024/01/11 00:06:04;;;;;;;26.70;15.40;;;-3.80;99.90;;;;;;5035369;28;20049;-65
2024/01/11 00:08:30;;;;;;;27.58;15.05;;;-3.80;99.90;;;;;;5053589;28;20397;-66
2024/01/11 00:10:55;;;;;;;28.20;14.95;;;-3.80;99.90;;;;;;5053309;28;20505;-66
2024/01/11 00:13:21;;;;;;;30.10;14.25;;;-3.70;99.90;;;;;;5052657;28;20198;-66
2024/01/11 00:15:47;;;;;;;28.80;15.82;;;-3.70;99.90;;;;;;5035263;28;20076;-66
2024/01/11 00:18:13;;;;;;;31.35;15.32;;;-3.70;99.90;;;;;;5052798;28;20041;-66
2024/01/11 00:20:38;;;;;;;26.48;14.48;;;-3.70;99.90;;;;;;5035798;28;20048;-66
2024/01/11 00:23:04;;;;;;;30.85;15.85;;;-3.70;99.90;;;;;;5054142;28;20068;-66
2024/01/11 00:25:29;;;;;;;28.50;15.55;;;-3.70;99.90;;;;;;5052662;28;20033;-65
2024/01/11 00:27:55;;;;;;;32.20;15.50;;;-3.70;99.90;;;;;;5019626;28;20433;-65
2024/01/11 00:30:22;;;;;;;31.55;16.15;;;-3.70;99.90;;;;;;5035768;28;20512;-66
2024/01/11 00:32:48;;;;;;;28.83;15.57;;;-3.80;99.90;;;;;;5052099;28;20087;-65
2024/01/11 00:35:13;;;;;;;28.92;15.20;;;-3.80;99.90;;;;;;5034196;28;20072;-65
2024/01/11 00:37:39;;;;;;;28.63;15.18;;;-3.80;99.90;;;;;;5034531;28;20048;-66
2024/01/11 00:40:05;;;;;;;27.25;13.88;;;-3.80;99.90;;;;;;5019307;28;20140;-66
2024/01/11 00:42:31;;;;;;;30.63;15.40;;;-3.80;99.90;;;;;;5035006;28;20124;-65
2024/01/11 00:44:57;;;;;;;27.33;14.25;;;-3.80;99.90;;;;;;5029038;28;20125;-66
2024/01/11 00:47:22;;;;;;;28.95;14.63;;;-3.80;99.90;;;;;;5032180;28;20049;-65
2024/01/11 00:49:48;;;;;;;33.22;16.00;;;-3.90;99.90;;;;;;5032015;28;20432;-65
2024/01/11 00:52:14;;;;;;;26.35;14.55;;;-3.90;99.90;;;;;;5032498;28;20439;-65
2024/01/11 00:54:40;;;;;;;26.85;14.80;;;-3.90;99.90;;;;;;5031687;28;20049;-66
2024/01/11 00:57:06;;;;;;;31.33;16.38;;;-3.90;99.90;;;;;;5015658;28;20057;-65
2024/01/11 00:59:31;;;;;;;31.83;16.58;;;-3.90;99.90;;;;;;5028247;28;20034;-65
2024/01/11 01:01:57;;;;;;;30.55;16.25;;;-3.90;99.90;;;;;;5032133;28;20034;-66
2024/01/11 01:04:23;;;;;;;31.48;15.85;;;-3.80;99.90;;;;;;5015186;28;20552;-66
2024/01/11 01:06:49;;;;;;;28.23;14.30;;;-3.90;99.90;;;;;;5030389;28;20404;-66
2024/01/11 01:09:15;;;;;;;30.98;15.15;;;-3.80;99.90;;;;;;5034831;28;20445;-66
2024/01/11 01:11:40;;;;;;;31.92;16.00;;;-3.80;99.90;;;;;;5034847;28;20103;-66
2024/01/11 01:14:06;;;;;;;32.47;16.73;;;-3.80;99.90;;;;;;5034216;28;20037;-66
2024/01/11 01:16:31;;;;;;;32.17;16.05;;;-3.80;99.90;;;;;;5032201;28;20045;-66
2024/01/11 01:18:57;;;;;;;31.20;16.02;;;-3.80;99.90;;;;;;5015406;28;20056;-65
2024/01/11 01:21:23;;;;;;;28.15;15.95;;;-3.80;99.90;;;;;;5013977;28;20034;-66
2024/01/11 01:23:48;;;;;;;28.65;16.13;;;-3.70;99.90;;;;;;5015010;28;20136;-66
2024/01/11 01:26:14;;;;;;;28.42;15.50;;;-3.80;99.90;;;;;;5014721;28;20053;-67
2024/01/11 01:28:40;;;;;;;28.13;15.43;;;-3.80;99.90;;;;;;5028628;28;20049;-61
2024/01/11 01:31:06;;;;;;;31.40;16.60;;;-3.80;99.90;;;;;;5018125;28;20052;-61
2024/01/11 01:33:31;;;;;;;31.33;15.75;;;-3.90;99.90;;;;;;5051868;28;20048;-61
2024/01/11 01:35:57;;;;;;;29.33;16.50;;;-3.90;99.90;;;;;;5051647;28;20036;-61
2024/01/11 01:38:23;;;;;;;26.67;15.48;;;-3.90;99.90;;;;;;5034247;28;20041;-61
2024/01/11 01:40:49;;;;;;;35.08;17.33;;;-3.90;99.90;;;;;;5033334;28;20064;-61
2024/01/11 01:43:14;;;;;;;29.45;14.90;;;-3.90;99.90;;;;;;5052020;28;20106;-61
2024/01/11 01:45:40;;;;;;;26.17;14.57;;;-3.90;99.90;;;;;;5013327;28;20455;-61
2024/01/11 01:48:07;;;;;;;30.55;16.38;;;-3.90;99.90;;;;;;5014970;28;20053;-61
2024/01/11 01:50:33;;;;;;;33.97;18.88;;;-3.90;99.90;;;;;;5014537;28;20044;-62
2024/01/11 01:52:59;;;;;;;34.03;18.45;;;-3.90;99.90;;;;;;5014426;28;20486;-61
2024/01/11 01:55:26;;;;;;;30.77;18.27;;;-3.80;99.90;;;;;;5017442;28;20041;-61
2024/01/11 01:57:52;;;;;;;29.30;16.67;;;-3.80;99.90;;;;;;5033840;28;20056;-61
2024/01/11 02:00:18;;;;;;;33.03;18.75;;;-3.80;99.90;;;;;;5033624;28;20040;-61
2024/01/11 02:02:45;;;;;;;31.33;19.77;;;-3.80;99.90;;;;;;5050796;28;20040;-61
2024/01/11 02:05:12;;;;;;;34.33;19.65;;;-3.80;99.90;;;;;;5051829;28;20040;-61
2024/01/11 02:07:39;;;;;;;33.42;19.60;;;-3.70;99.90;;;;;;5033712;28;20454;-61
2024/01/11 02:10:06;;;;;;;32.97;17.98;;;-3.70;99.90;;;;;;5051382;28;20067;-61
2024/01/11 02:12:34;;;;;;;32.63;17.33;;;-3.60;99.90;;;;;;5033566;28;20493;-61
2024/01/11 02:15:03;;;;;;;29.52;15.80;;;-3.70;99.90;;;;;;5033816;28;20041;-61
2024/01/11 02:17:29;;;;;;;33.05;15.90;;;-3.70;99.90;;;;;;5025103;28;20080;-61
2024/01/11 02:19:54;;;;;;;28.23;15.23;;;-3.60;99.90;;;;;;5032047;28;20079;-61
2024/01/11 02:22:34;;;;;;;31.67;17.40;;;-3.70;99.90;;;;;;5031604;28;20036;-61
2024/01/11 02:24:59;;;;;;;35.90;16.15;;;-3.80;99.90;;;;;;5013219;28;20041;-61
2024/01/11 02:27:25;;;;;;;29.58;16.05;;;-3.80;99.90;;;;;;5030033;28;20040;-61
2024/01/11 02:29:51;;;;;;;34.15;16.58;;;-3.80;99.90;;;;;;5013454;28;20132;-61
2024/01/11 02:32:17;;;;;;;29.30;16.92;;;-3.80;99.90;;;;;;5029431;28;20116;-61
2024/01/11 02:34:43;;;;;;;32.60;17.25;;;-3.80;99.90;;;;;;5030120;28;20042;-61
2024/01/11 02:37:08;;;;;;;40.00;21.60;;;-3.80;99.90;;;;;;5012854;28;20037;-61
2024/01/11 02:39:34;;;;;;;33.25;19.10;;;-3.80;99.90;;;;;;5030014;28;20049;-61
2024/01/11 02:42:01;;;;;;;31.05;17.80;;;-3.80;99.90;;;;;;5031520;28;20041;-61
2024/01/11 02:44:26;;;;;;;30.95;16.98;;;-3.90;99.90;;;;;;5012618;28;20045;-61
2024/01/11 02:46:52;;;;;;;31.95;16.95;;;-3.90;99.90;;;;;;5033984;28;20064;-61
2024/01/11 02:49:18;;;;;;;29.67;15.75;;;-3.90;99.90;;;;;;5051190;28;20490;-61
2024/01/11 02:51:43;;;;;;;32.47;16.55;;;-4.00;99.90;;;;;;5026281;28;20056;-62
2024/01/11 02:54:09;;;;;;;28.38;14.68;;;-4.00;99.90;;;;;;5029907;28;20045;-61
2024/01/11 02:56:35;;;;;;;28.90;16.25;;;-4.00;99.90;;;;;;5029682;28;20124;-62
2024/01/11 02:59:01;;;;;;;32.33;16.40;;;-4.00;99.90;;;;;;5031553;28;20052;-62
2024/01/11 03:01:26;;;;;;;26.15;14.68;;;-4.10;99.90;;;;;;5033875;28;20041;-62
2024/01/11 03:03:53;;;;;;;27.80;14.60;;;-4.00;99.90;;;;;;5034147;28;20048;-62
2024/01/11 03:06:21;;;;;;;30.13;15.02;;;-4.00;99.90;;;;;;5044781;28;20409;-62
2024/01/11 03:08:50;;;;;;;31.20;16.17;;;-4.00;99.90;;;;;;5037233;28;20123;-62
2024/01/11 03:11:16;;;;;;;31.05;15.95;;;-4.00;99.90;;;;;;5036959;28;20513;-62
2024/01/11 03:13:42;;;;;;;29.05;16.35;;;-4.10;99.90;;;;;;5036495;28;20045;-62
2024/01/11 03:16:07;;;;;;;30.13;16.55;;;-4.10;99.90;;;;;;5037128;28;20500;-61
2024/01/11 03:18:33;;;;;;;31.05;17.38;;;-4.10;99.90;;;;;;5020587;28;20047;-62
2024/01/11 03:20:59;;;;;;;30.73;15.30;;;-4.10;99.90;;;;;;5019812;28;20037;-62
2024/01/11 03:23:24;;;;;;;27.77;15.55;;;-4.10;99.90;;;;;;5033568;28;20041;-62
2024/01/11 03:25:50;;;;;;;34.08;18.17;;;-4.10;99.90;;;;;;5033366;28;20041;-62
2024/01/11 03:28:16;;;;;;;32.67;17.33;;;-4.10;99.90;;;;;;5032373;28;20053;-62
2024/01/11 03:30:41;;;;;;;29.15;18.25;;;-4.20;99.90;;;;;;5017135;28;20204;-62
2024/01/11 03:33:07;;;;;;;28.83;15.90;;;-4.20;99.90;;;;;;5034972;28;20042;-62
2024/01/11 03:35:33;;;;;;;31.75;17.80;;;-4.20;99.90;;;;;;5035690;28;20049;-62
2024/01/11 03:37:58;;;;;;;30.50;17.55;;;-4.20;99.90;;;;;;5054748;28;20194;-62
2024/01/11 03:40:24;;;;;;;35.30;19.13;;;-4.20;99.90;;;;;;5035979;28;20524;-62
2024/01/11 03:42:49;;;;;;;31.23;17.42;;;-4.20;99.90;;;;;;5036788;28;20494;-62
2024/01/11 03:45:19;;;;;;;34.15;19.67;;;-4.20;99.90;;;;;;5036393;28;20040;-62
2024/01/11 03:47:44;;;;;;;32.30;16.98;;;-4.20;99.90;;;;;;5023647;28;20429;-62
2024/01/11 03:50:10;;;;;;;29.50;15.98;;;-4.20;99.90;;;;;;5034331;28;20103;-62
2024/01/11 03:52:36;;;;;;;31.52;16.95;;;-4.20;99.90;;;;;;5034022;28;20033;-62
2024/01/11 03:55:01;;;;;;;30.75;15.10;;;-4.20;99.90;;;;;;5032196;28;20128;-62
2024/01/11 03:57:27;;;;;;;34.25;17.80;;;-4.30;99.90;;;;;;5016128;28;20132;-62
2024/01/11 03:59:53;;;;;;;31.05;15.55;;;-4.30;99.90;;;;;;5016292;28;20037;-62
2024/01/11 04:02:19;;;;;;;31.70;16.77;;;-4.30;99.90;;;;;;5015790;28;20107;-62
2024/01/11 04:04:44;;;;;;;31.20;15.88;;;-4.30;99.90;;;;;;5032691;28;20098;-62
2024/01/11 04:07:10;;;;;;;33.03;15.55;;;-4.30;99.90;;;;;;5033763;28;20054;-62
2024/01/11 04:09:38;;;;;;;33.13;16.45;;;-4.40;99.90;;;;;;5031270;28;20080;-62
2024/01/11 04:12:04;;;;;;;31.58;16.13;;;-4.30;99.90;;;;;;5016369;28;20138;-62
2024/01/11 04:14:30;;;;;;;29.08;15.40;;;-4.30;99.90;;;;;;5015759;28;20498;-62
2024/01/11 04:16:56;;;;;;;30.65;15.68;;;-4.30;99.90;;;;;;5030798;28;20079;-62
2024/01/11 04:19:22;;;;;;;33.85;17.55;;;-4.40;99.90;;;;;;5035600;28;20041;-62
2024/01/11 04:21:48;;;;;;;31.73;16.35;;;-4.40;99.90;;;;;;5035679;28;20127;-62
2024/01/11 04:24:14;;;;;;;34.75;17.75;;;-4.40;99.90;;;;;;5018424;28;20121;-62
2024/01/11 04:26:40;;;;;;;32.17;16.50;;;-4.40;99.90;;;;;;5035515;28;20040;-62
2024/01/11 04:29:06;;;;;;;28.65;16.30;;;-4.30;99.90;;;;;;5053624;28;20052;-62
2024/01/11 04:31:31;;;;;;;33.53;16.88;;;-4.30;99.90;;;;;;5034284;28;20049;-62
2024/01/11 04:33:57;;;;;;;32.17;18.10;;;-4.30;99.90;;;;;;5053562;28;20064;-62
2024/01/11 04:36:22;;;;;;;34.47;17.15;;;-4.30;99.90;;;;;;5004702;28;20041;-62
2024/01/11 04:38:48;;;;;;;31.70;16.33;;;-4.30;99.90;;;;;;5032336;28;20096;-62
2024/01/11 04:41:15;;;;;;;30.77;16.73;;;-4.20;99.90;;;;;;4998959;28;20056;-62
2024/01/11 04:43:42;;;;;;;37.25;18.52;;;-4.20;99.90;;;;;;5032616;28;20044;-62
2024/01/11 04:46:19;;;;;;;32.78;16.95;;;-4.10;99.90;;;;;;5015587;28;20148;-62
2024/01/11 04:48:45;;;;;;;33.85;17.15;;;-4.10;99.90;;;;;;5035118;28;20057;-62
2024/01/11 04:51:13;;;;;;;34.80;16.38;;;-4.00;99.90;;;;;;5034339;28;20049;-62
2024/01/11 04:53:42;;;;;;;30.15;15.68;;;-4.00;99.90;;;;;;5052548;28;20048;-62
2024/01/11 04:56:09;;;;;;;34.17;18.63;;;-4.00;99.90;;;;;;5035282;28;20045;-62
2024/01/11 04:58:37;;;;;;;32.65;18.33;;;-3.90;99.90;;;;;;5026453;28;20041;-62
2024/01/11 05:01:04;;;;;;;32.35;16.65;;;-3.80;99.90;;;;;;5029612;28;20045;-62
2024/01/11 05:03:31;;;;;;;31.63;16.92;;;-3.70;99.90;;;;;;5015159;28;20045;-62
2024/01/11 05:05:57;;;;;;;32.72;17.80;;;-3.70;99.90;;;;;;5044055;28;20056;-62
2024/01/11 05:08:23;;;;;;;34.80;18.42;;;-3.60;99.90;;;;;;5034376;28;20466;-62
2024/01/11 05:10:50;;;;;;;36.40;19.15;;;-3.60;99.90;;;;;;5052382;28;20055;-62
2024/01/11 05:13:17;;;;;;;32.28;17.38;;;-3.50;99.90;;;;;;5051856;28;20124;-62
2024/01/11 05:15:42;;;;;;;36.38;18.15;;;-3.40;99.90;;;;;;5034648;28;20052;-63
2024/01/11 05:18:08;;;;;;;32.40;17.98;;;-3.40;99.90;;;;;;5034253;28;20052;-62
2024/01/11 05:20:33;;;;;;;29.50;15.13;;;-3.30;99.90;;;;;;5050404;28;20064;-62
2024/01/11 05:23:00;;;;;;;32.40;16.65;;;-3.20;99.90;;;;;;5052528;28;20036;-62
2024/01/11 05:25:26;;;;;;;34.88;17.25;;;-3.20;99.90;;;;;;5034374;28;20041;-62
2024/01/11 05:27:52;;;;;;;30.27;16.70;;;-3.10;99.90;;;;;;5033828;28;20110;-62
2024/01/11 05:30:18;;;;;;;32.90;17.20;;;-3.10;99.90;;;;;;5034225;28;20481;-62
2024/01/11 05:32:43;;;;;;;34.05;18.00;;;-3.00;99.90;;;;;;5052132;28;20115;-62
2024/01/11 05:35:10;;;;;;;33.28;18.08;;;-3.00;99.90;;;;;;5049075;28;20454;-62
2024/01/11 05:37:36;;;;;;;39.17;18.38;;;-3.00;99.90;;;;;;5017667;28;20123;-62
2024/01/11 05:40:02;;;;;;;31.75;18.33;;;-2.90;99.90;;;;;;5033662;28;20044;-62
2024/01/11 05:42:28;;;;;;;31.83;16.67;;;-2.90;99.90;;;;;;5033996;28;20111;-62
2024/01/11 05:44:54;;;;;;;35.30;19.05;;;-2.80;99.90;;;;;;5034062;28;20037;-62
2024/01/11 05:47:19;;;;;;;35.67;19.77;;;-2.80;99.90;;;;;;5013140;28;20045;-62
2024/01/11 05:49:45;;;;;;;42.13;22.30;;;-2.80;99.90;;;;;;5014076;28;20041;-62
2024/01/11 05:52:11;;;;;;;37.10;19.42;;;-2.70;99.90;;;;;;5015467;28;20470;-62
2024/01/11 05:54:37;;;;;;;37.53;20.25;;;-2.70;99.90;;;;;;4996938;28;20067;-61
2024/01/11 05:57:03;;;;;;;41.60;22.45;;;-2.70;99.90;;;;;;4998068;28;20049;-62
2024/01/11 05:59:28;;;;;;;40.33;21.63;;;-2.60;99.90;;;;;;5031771;28;20425;-62
2024/01/11 06:01:54;;;;;;;39.92;19.83;;;-2.60;99.90;;;;;;5030974;28;20044;-62
2024/01/11 06:04:19;;;;;;;38.45;20.02;;;-2.60;99.90;;;;;;5032955;28;20048;-62
2024/01/11 06:06:45;;;;;;;33.78;19.08;;;-2.50;99.90;;;;;;5017171;28;20057;-62
2024/01/11 06:09:11;;;;;;;33.55;18.50;;;-2.50;99.90;;;;;;5050801;28;20106;-62
2024/01/11 06:11:37;;;;;;;32.58;18.65;;;-2.50;99.90;;;;;;5051301;28;20033;-62
2024/01/11 06:14:02;;;;;;;38.40;20.48;;;-2.40;99.90;;;;;;5050948;28;20529;-62
2024/01/11 06:16:28;;;;;;;38.33;20.75;;;-2.40;99.90;;;;;;5032688;28;20620;-62
2024/01/11 06:18:54;;;;;;;35.65;20.55;;;-2.30;99.90;;;;;;5033652;28;20483;-62
2024/01/11 06:21:20;;;;;;;36.88;19.42;;;-2.30;99.90;;;;;;5032987;28;20122;-62
2024/01/11 06:23:46;;;;;;;35.08;18.02;;;-2.30;99.90;;;;;;5012840;28;20052;-62
2024/01/11 06:26:11;;;;;;;37.22;19.80;;;-2.30;99.90;;;;;;5013694;28;20060;-62
2024/01/11 06:28:37;;;;;;;32.63;18.95;;;-2.20;99.90;;;;;;5026518;28;20072;-62
2024/01/11 06:31:03;;;;;;;33.40;19.13;;;-2.20;99.90;;;;;;5050282;28;20493;-62
2024/01/11 06:33:29;;;;;;;39.47;20.73;;;-2.20;99.90;;;;;;5015481;28;20525;-62
2024/01/11 06:35:55;;;;;;;35.13;18.40;;;-2.10;99.90;;;;;;5031469;28;20034;-62
2024/01/11 06:38:21;;;;;;;34.47;19.05;;;-2.10;99.90;;;;;;5012792;28;20124;-62
2024/01/11 06:40:48;;;;;;;36.22;19.27;;;-2.10;99.90;;;;;;5031379;28;20116;-62
2024/01/11 06:43:14;;;;;;;35.63;19.10;;;-2.10;99.90;;;;;;5012840;28;20107;-62
2024/01/11 06:45:42;;;;;;;33.03;16.98;;;-2.10;99.90;;;;;;5013560;28;20043;-62
2024/01/11 06:48:07;;;;;;;36.20;18.23;;;-2.00;99.90;;;;;;5013573;28;20056;-62
2024/01/11 06:50:33;;;;;;;36.35;20.02;;;-2.00;99.90;;;;;;5029431;28;20740;-62
2024/01/11 06:52:59;;;;;;;41.15;21.20;;;-2.00;99.90;;;;;;5030215;28;20042;-62
2024/01/11 06:55:25;;;;;;;39.20;20.35;;;-1.90;99.90;;;;;;5013501;28;20049;-62
2024/01/11 06:57:50;;;;;;;39.95;22.38;;;-1.90;99.90;;;;;;5032060;28;20044;-62
2024/01/11 07:00:16;;;;;;;39.22;21.63;;;-1.90;99.90;;;;;;5041388;28;20041;-62
2024/01/11 07:02:42;;;;;;;39.42;19.75;;;-1.90;99.90;;;;;;5033239;28;20070;-62
2024/01/11 07:05:07;;;;;;;39.13;20.48;;;-1.90;99.90;;;;;;5032633;28;20051;-62
2024/01/11 07:07:33;;;;;;;35.47;20.08;;;-1.80;99.90;;;;;;5016308;28;20421;-62
2024/01/11 07:09:59;;;;;;;34.55;19.95;;;-1.80;99.90;;;;;;5033512;28;20503;-62
2024/01/11 07:12:28;;;;;;;38.25;21.75;;;-1.80;99.90;;;;;;5032260;28;20500;-62
2024/01/11 07:14:54;;;;;;;39.17;21.52;;;-1.80;99.90;;;;;;5033014;28;20036;-62
2024/01/11 07:17:19;;;;;;;38.85;22.98;;;-1.80;99.90;;;;;;5034250;28;20428;-62
2024/01/11 07:19:45;;;;;;;45.42;25.52;;;-1.70;99.90;;;;;;5032113;28;20084;-62
2024/01/11 07:22:10;;;;;;;45.42;26.10;;;-1.70;99.90;;;;;;5050910;28;20033;-62
2024/01/11 07:24:37;;;;;;;43.83;23.02;;;-1.70;99.90;;;;;;5027696;28;20041;-62
2024/01/11 07:27:06;;;;;;;40.83;21.55;;;-1.70;99.90;;;;;;5012678;28;20132;-62
2024/01/11 07:29:33;;;;;;;37.67;20.63;;;-1.60;99.90;;;;;;4996821;28;20082;-62
2024/01/11 07:31:59;;;;;;;38.72;20.60;;;-1.60;99.90;;;;;;4997399;28;20445;-62
2024/01/11 07:34:26;;;;;;;40.60;22.83;;;-1.60;99.90;;;;;;5028751;28;20092;-62
2024/01/11 07:36:52;;;;;;;37.70;21.40;;;-1.60;99.90;;;;;;5013105;28;20053;-62
2024/01/11 07:39:18;;;;;;;36.20;19.85;;;-1.60;99.90;;;;;;5013293;28;20042;-62
2024/01/11 07:41:44;;;;;;;33.50;19.55;;;-1.50;99.90;;;;;;5014882;28;20089;-62
2024/01/11 07:44:09;;;;;;;37.80;21.20;;;-1.50;99.90;;;;;;5013908;28;20041;-62
2024/01/11 07:46:36;;;;;;;34.05;19.52;;;-1.50;99.90;;;;;;5015881;28;20045;-62
2024/01/11 07:49:05;;;;;;;37.42;20.90;;;-1.50;99.90;;;;;;5034673;28;20057;-62
2024/01/11 07:51:31;;;;;;;33.22;18.63;;;-1.50;99.90;;;;;;5027263;28;20169;-62
2024/01/11 07:53:57;;;;;;;38.33;21.08;;;-1.50;99.90;;;;;;5053864;28;20145;-62
2024/01/11 07:56:22;;;;;;;38.42;20.10;;;-1.50;99.90;;;;;;5024311;28;20080;-62
2024/01/11 07:58:48;;;;;;;36.75;19.48;;;-1.40;99.90;;;;;;5016428;28;20128;-62
2024/01/11 08:01:16;;;;;;;35.28;19.35;;;-1.40;99.90;;;;;;5025799;28;20140;-62
2024/01/11 08:03:44;;;;;;;36.58;19.55;;;-1.40;99.90;;;;;;5036277;28;20044;-62
2024/01/11 08:06:10;;;;;;;32.55;17.70;;;-1.40;99.90;;;;;;5035958;28;20170;-62
2024/01/11 08:08:38;;;;;;;32.75;18.05;;;-1.40;99.90;;;;;;5035139;28;20114;-62
2024/01/11 08:11:07;;;;;;;32.05;18.27;;;-1.40;99.90;;;;;;5019359;28;20081;-62
2024/01/11 08:13:34;;;;;;;37.40;19.30;;;-1.40;99.90;;;;;;5032509;28;20094;-62
2024/01/11 08:16:01;;;;;;;36.85;19.10;;;-1.40;99.90;;;;;;5033384;28;20052;-62
2024/01/11 08:18:27;;;;;;;35.97;18.40;;;-1.30;99.90;;;;;;5033843;28;20053;-62
2024/01/11 08:20:52;;;;;;;35.17;19.70;;;-1.30;99.90;;;;;;5032973;28;20067;-62
2024/01/11 08:23:18;;;;;;;33.95;19.02;;;-1.30;99.90;;;;;;5034115;28;20501;-62
2024/01/11 08:25:43;;;;;;;49.60;29.17;;;-1.20;99.90;;;;;;5033264;28;20038;-62
2024/01/11 08:28:09;;;;;;;54.13;32.83;;;-1.20;99.90;;;;;;5019192;28;20051;-62
2024/01/11 08:30:36;;;;;;;49.35;29.90;;;-1.20;99.90;;;;;;5023127;28;20044;-62
2024/01/11 08:33:03;;;;;;;47.78;29.83;;;-1.10;99.90;;;;;;5015847;28;20118;-62
2024/01/11 08:35:29;;;;;;;45.00;26.52;;;-1.10;99.90;;;;;;5038142;28;20123;-62
2024/01/11 08:37:55;;;;;;;41.67;24.30;;;-1.10;99.90;;;;;;5026159;28;20056;-62
2024/01/11 08:40:21;;;;;;;46.58;24.58;;;-1.00;99.90;;;;;;5030856;28;20082;-62
2024/01/11 08:42:47;;;;;;;38.72;22.38;;;-1.00;99.90;;;;;;5035194;28;20033;-62
2024/01/11 08:45:17;;;;;;;33.58;19.67;;;-1.00;99.90;;;;;;5034453;28;20040;-62
2024/01/11 08:47:44;;;;;;;33.17;19.38;;;-0.90;99.90;;;;;;5034514;28;20477;-62
2024/01/11 08:50:15;;;;;;;33.83;19.80;;;-0.90;99.90;;;;;;5034406;28;20051;-62
2024/01/11 08:52:42;;;;;;;33.35;20.42;;;-0.80;99.90;;;;;;5034977;28;20489;-62
2024/01/11 08:55:08;;;;;;;34.95;19.80;;;-0.80;99.90;;;;;;5034173;28;20041;-62
2024/01/11 08:57:35;;;;;;;40.00;21.05;;;-0.80;99.90;;;;;;5013288;28;20064;-62
2024/01/11 09:00:02;;;;;;;37.67;21.02;;;-0.70;99.90;;;;;;5032716;28;20082;-62
2024/01/11 09:02:28;;;;;;;32.55;20.35;;;-0.70;99.90;;;;;;5050628;28;20390;-62
2024/01/11 09:04:53;;;;;;;35.13;20.83;;;-0.60;99.90;;;;;;5049759;28;20044;-62
2024/01/11 09:07:19;;;;;;;31.77;20.40;;;-0.60;99.90;;;;;;5032360;28;20056;-62
2024/01/11 09:09:45;;;;;;;36.45;21.50;;;-0.60;99.90;;;;;;5048853;28;20056;-62
2024/01/11 09:12:11;;;;;;;34.28;21.90;;;-0.50;99.90;;;;;;5031809;28;20485;-62
2024/01/11 09:14:37;;;;;;;31.25;19.83;;;-0.50;99.90;;;;;;5050214;28;20044;-62
2024/01/11 09:17:06;;;;;;;30.40;17.92;;;-0.40;99.90;;;;;;5042291;28;20044;-62
2024/01/11 09:19:33;;;;;;;32.85;16.77;;;-0.40;99.90;;;;;;5017329;28;20048;-62
2024/01/11 09:21:59;;;;;;;31.38;18.58;;;-0.30;99.90;;;;;;5016329;28;20041;-62
2024/01/11 09:24:25;;;;;;;32.45;18.50;;;-0.20;99.90;;;;;;5011381;28;20042;-62
2024/01/11 09:26:51;;;;;;;28.13;16.70;;;-0.20;99.90;;;;;;5022970;28;20371;-62
2024/01/11 09:29:16;;;;;;;26.63;15.38;;;-0.10;99.90;;;;;;5043425;28;20131;-62
2024/01/11 09:31:42;;;;;;;26.15;14.88;;;-0.10;99.90;;;;;;5048291;28;20052;-62
2024/01/11 09:34:08;;;;;;;30.88;16.65;;;0.00;99.90;;;;;;5029918;28;20128;-62
2024/01/11 09:36:34;;;;;;;27.70;16.13;;;0.00;99.90;;;;;;5031320;28;20382;-62
2024/01/11 09:39:00;;;;;;;29.58;16.17;;;0.10;99.90;;;;;;5030321;28;20045;-62
2024/01/11 09:41:26;;;;;;;29.40;17.08;;;0.10;99.90;;;;;;5029707;28;20708;-62
2024/01/11 09:43:54;;;;;;;28.88;17.48;;;0.20;99.90;;;;;;5031499;28;20053;-63
2024/01/11 09:46:21;;;;;;;25.20;15.13;;;0.20;99.90;;;;;;5029153;28;20099;-62
2024/01/11 09:48:48;;;;;;;25.80;15.65;;;0.20;99.90;;;;;;5049102;28;20371;-62
2024/01/11 09:51:14;;;;;;;27.35;16.33;;;0.30;99.90;;;;;;5031597;28;20063;-62
2024/01/11 09:53:42;;;;;;;30.83;16.65;;;0.30;99.90;;;;;;5029623;28;20049;-62
2024/01/11 09:56:11;;;;;;;28.15;16.38;;;0.40;99.90;;;;;;5011062;28;20080;-62
2024/01/11 09:58:41;;;;;;;27.83;15.27;;;0.40;99.90;;;;;;5027664;28;20073;-62
2024/01/11 10:01:10;;;;;;;31.08;16.73;;;0.40;99.90;;;;;;5028781;28;20436;-62
2024/01/11 10:03:36;;;;;;;27.38;15.85;;;0.50;99.90;;;;;;5027892;28;20048;-62
2024/01/11 10:06:09;;;;;;;27.20;16.42;;;0.50;99.90;;;;;;5011203;28;20056;-62
2024/01/11 10:08:36;;;;;;;32.78;17.92;;;0.50;99.90;;;;;;5010223;28;20087;-62
2024/01/11 10:11:03;;;;;;;26.88;15.90;;;0.60;99.90;;;;;;5030499;28;20504;-62
2024/01/11 10:13:35;;;;;;;26.05;15.30;;;0.60;99.90;;;;;;5031100;28;20091;-62
2024/01/11 10:16:13;;;;;;;29.13;16.15;;;0.60;99.90;;;;;;5024087;28;20262;-63
2024/01/11 10:18:39;;;;;;;25.10;14.90;;;0.70;99.90;;;;;;5011326;28;20050;-62
2024/01/11 10:21:05;;;;;;;26.48;15.60;;;0.70;99.90;;;;;;5011456;28;20049;-62
2024/01/11 10:23:34;;;;;;;25.38;15.40;;;0.70;99.90;;;;;;5024175;28;20044;-62
2024/01/11 10:26:00;;;;;;;26.50;16.83;;;0.80;99.90;;;;;;5030623;28;20490;-62
2024/01/11 10:28:26;;;;;;;25.25;14.63;;;0.80;99.90;;;;;;5023903;28;20040;-62
2024/01/11 10:30:55;;;;;;;26.05;15.80;;;0.80;99.90;;;;;;5011261;28;20045;-63
2024/01/11 10:33:22;;;;;;;25.33;14.25;;;0.80;99.90;;;;;;5011694;28;20071;-62
2024/01/11 10:35:51;;;;;;;28.05;17.08;;;0.90;99.90;;;;;;5010811;28;20073;-62
2024/01/11 10:38:18;;;;;;;28.58;17.02;;;0.90;99.90;;;;;;5024436;28;20041;-63
2024/01/11 10:40:44;;;;;;;28.67;15.95;;;0.90;99.90;;;;;;5028876;28;20045;-62
2024/01/11 10:43:15;;;;;;;30.60;16.98;;;0.90;99.90;;;;;;5029063;28;20029;-62
2024/01/11 10:45:42;;;;;;;29.33;16.73;;;0.90;99.90;;;;;;5016879;28;20057;-62
2024/01/11 10:48:13;;;;;;;32.45;18.77;;;1.00;99.90;;;;;;5031193;28;20040;-62
2024/01/11 10:50:45;;;;;;;37.22;19.20;;;1.00;99.90;;;;;;5037869;28;20052;-62
2024/01/11 10:53:41;;;;;;;32.65;18.27;;;1.00;99.90;;;;;;5028906;28;20053;-62
2024/01/11 10:56:07;;;;;;;27.30;16.00;;;1.00;99.90;;;;;;5011113;28;20136;-62
2024/01/11 10:58:35;;;;;;;28.05;16.13;;;1.00;99.90;;;;;;5023813;28;20049;-62
2024/01/11 11:01:02;;;;;;;24.45;13.77;;;1.00;99.90;;;;;;5030169;28;20041;-62
2024/01/11 11:03:31;;;;;;;24.08;14.80;;;1.10;99.90;;;;;;5009839;28;20037;-62
2024/01/11 11:05:58;;;;;;;22.67;13.43;;;1.10;99.90;;;;;;5017927;28;20143;-62
2024/01/11 11:08:26;;;;;;;27.52;15.05;;;1.10;99.90;;;;;;5026112;28;20495;-62
2024/01/11 11:10:59;;;;;;;31.35;17.08;;;1.20;99.90;;;;;;5010066;28;20049;-63
2024/01/11 11:13:26;;;;;;;33.28;18.35;;;1.20;99.90;;;;;;5011813;28;20045;-62
2024/01/11 11:15:52;;;;;;;33.00;17.65;;;1.20;99.90;;;;;;5030183;28;20076;-62
2024/01/11 11:18:18;;;;;;;35.80;15.85;;;1.30;99.90;;;;;;5020586;28;20034;-62
2024/01/11 11:20:45;;;;;;;27.08;15.75;;;1.30;99.90;;;;;;5024093;28;20084;-62
2024/01/11 11:23:14;;;;;;;24.95;14.85;;;1.40;99.90;;;;;;5032202;28;20045;-62
2024/01/11 11:25:41;;;;;;;24.80;14.45;;;1.40;99.90;;;;;;5014199;28;20368;-62
2024/01/11 11:28:07;;;;;;;27.35;13.75;;;1.40;99.90;;;;;;5014807;28;20060;-62
2024/01/11 11:30:36;;;;;;;22.90;14.52;;;1.40;99.90;;;;;;5014508;28;20577;-62
2024/01/11 11:33:15;;;;;;;23.83;13.20;;;1.50;99.90;;;;;;5014616;28;20142;-62
2024/01/11 11:35:42;;;;;;;25.00;14.23;;;1.50;99.90;;;;;;5033920;28;20049;-62
2024/01/11 11:38:16;;;;;;;22.67;14.02;;;1.50;99.90;;;;;;5019091;28;20382;-62
2024/01/11 11:40:45;;;;;;;23.70;14.48;;;1.50;99.90;;;;;;5034076;28;20055;-62
2024/01/11 11:43:10;;;;;;;25.80;14.30;;;1.60;99.90;;;;;;5036471;28;20082;-62
2024/01/11 11:45:37;;;;;;;24.50;15.07;;;1.60;99.90;;;;;;5046843;28;20494;-61
2024/01/11 11:48:55;;;;;;;23.67;14.27;;;1.60;99.90;;;;;;5001272;28;20483;-62
2024/01/11 11:51:21;;;;;;;23.95;13.25;;;1.70;99.90;;;;;;5016596;28;20052;-62
2024/01/11 11:53:49;;;;;;;24.25;14.18;;;1.70;99.90;;;;;;5033774;28;20033;-63
2024/01/11 11:56:17;;;;;;;22.48;13.52;;;1.70;99.90;;;;;;5030330;28;20091;-63
2024/01/11 11:58:44;;;;;;;25.08;13.52;;;1.80;99.90;;;;;;5019019;28;20041;-63
2024/01/11 12:01:10;;;;;;;21.08;12.82;;;1.80;99.90;;;;;;5028028;28;20049;-62
2024/01/11 12:03:40;;;;;;;20.73;13.88;;;1.90;99.90;;;;;;5035917;28;20094;-62
2024/01/11 12:06:08;;;;;;;23.15;13.63;;;1.80;99.90;;;;;;5015519;28;20053;-63
2024/01/11 12:08:35;;;;;;;26.02;14.35;;;1.90;99.90;;;;;;5015594;28;20469;-62
2024/01/11 12:11:02;;;;;;;22.98;14.68;;;1.90;99.90;;;;;;5016470;28;20487;-62
2024/01/11 12:13:28;;;;;;;27.38;14.50;;;1.90;99.90;;;;;;5016282;28;20049;-62
2024/01/11 12:15:55;;;;;;;23.27;13.52;;;1.90;99.90;;;;;;5015588;28;20107;-62
2024/01/11 12:18:20;;;;;;;26.05;13.95;;;1.90;99.90;;;;;;5015981;28;20054;-62
2024/01/11 12:20:46;;;;;;;26.35;14.93;;;1.90;99.90;;;;;;5033504;28;20037;-62
2024/01/11 12:23:13;;;;;;;23.27;13.63;;;1.90;99.90;;;;;;5015622;28;20116;-62
2024/01/11 12:25:40;;;;;;;24.50;13.80;;;1.90;99.90;;;;;;5033640;28;20052;-62